Time;durP1;ratioP1;P1;durP2;ratioP2;P2;SDS_P1;SDS_P2;PMS_P1;PMS_P2;Temp;Humidity;BMP_temperature;BMP_pressure;BME280_temperature;BME280_humidity;BME280_pressure;Samples;Min_cycle;Max_cycle;Signal;HPM_P1;HPM_P2
2022/05/17 00:01:10;;;;;;;;;;;20.90;45.40;;;;;;5110231;28;20288;-57
2022/05/17 00:03:37;;;;;;;;;;;20.90;45.40;;;;;;5096191;27;19920;-59
2022/05/17 00:06:06;;;;;;;;;;;20.90;45.40;;;;;;5107847;28;19923;-60
2022/05/17 00:08:32;;;;;;;;;;;20.90;45.40;;;;;;5111484;27;19927;-59
2022/05/17 00:10:59;;;;;;;;;;;20.90;45.40;;;;;;5110662;27;19920;-59
2022/05/17 00:13:26;;;;;;;;;;;20.90;45.50;;;;;;5110784;27;20015;-60
2022/05/17 00:15:52;;;;;;;;;;;20.90;45.50;;;;;;5103501;28;19919;-59
2022/05/17 00:18:19;;;;;;;;;;;20.90;45.50;;;;;;5112416;28;19920;-59
2022/05/17 00:20:46;;;;;;;;;;;20.90;45.60;;;;;;5095844;27;20225;-58
2022/05/17 00:23:15;;;;;;;;;;;20.90;45.70;;;;;;5094900;27;19920;-59
2022/05/17 00:25:41;;;;;;;;;;;20.90;45.70;;;;;;5104999;28;19924;-60
2022/05/17 00:28:08;;;;;;;;;;;20.90;45.80;;;;;;5098110;28;20246;-60
2022/05/17 00:30:35;;;;;;;;;;;20.90;45.80;;;;;;5086289;28;19924;-60
2022/05/17 00:33:02;;;;;;;;;;;20.90;45.80;;;;;;5106921;27;20018;-60
2022/05/17 00:35:28;;;;;;;;;;;20.90;45.90;;;;;;5097096;27;19965;-59
2022/05/17 00:37:55;;;;;;;;;;;20.90;45.80;;;;;;5094873;27;19984;-59
2022/05/17 00:40:23;;;;;;;;;;;20.90;45.90;;;;;;5105592;27;19932;-59
2022/05/17 00:42:50;;;;;;;;;;;20.90;45.80;;;;;;5107692;28;19923;-58
2022/05/17 00:45:16;;;;;;;;;;;20.90;45.90;;;;;;5095310;28;20429;-58
2022/05/17 00:47:43;;;;;;;;;;;20.90;46.00;;;;;;5091766;28;20031;-58
2022/05/17 00:50:12;;;;;;;;;;;20.90;46.00;;;;;;5112250;27;19930;-57
2022/05/17 00:52:39;;;;;;;;;;;20.90;46.00;;;;;;5099963;27;20238;-58
2022/05/17 00:55:08;;;;;;;;;;;20.90;46.00;;;;;;5107136;27;20008;-60
2022/05/17 00:57:36;;;;;;;;;;;20.90;46.00;;;;;;5136638;27;19924;-58
2022/05/17 01:00:06;;;;;;;;;;;20.90;46.00;;;;;;5105739;27;19961;-59
2022/05/17 01:02:32;;;;;;;;;;;20.90;46.00;;;;;;5097990;27;19948;-59
2022/05/17 01:04:59;;;;;;;;;;;20.90;46.00;;;;;;5109802;27;20387;-58
2022/05/17 01:07:27;;;;;;;;;;;20.90;46.10;;;;;;5117022;27;20010;-59
2022/05/17 01:09:53;;;;;;;;;;;20.90;46.10;;;;;;5105457;27;19932;-59
2022/05/17 01:12:20;;;;;;;;;;;20.90;46.10;;;;;;5100297;28;20374;-58
2022/05/17 01:15:00;;;;;;;;;;;20.90;46.20;;;;;;5096006;28;19977;-58
2022/05/17 01:17:27;;;;;;;;;;;20.90;46.30;;;;;;5107245;28;19920;-59
2022/05/17 01:19:53;;;;;;;;;;;20.90;46.30;;;;;;5125122;27;19920;-58
2022/05/17 01:22:22;;;;;;;;;;;20.90;46.40;;;;;;5097052;27;20369;-59
2022/05/17 01:24:49;;;;;;;;;;;20.90;46.30;;;;;;5109765;28;20010;-59
2022/05/17 01:27:16;;;;;;;;;;;20.90;46.40;;;;;;5093202;28;19920;-57
2022/05/17 01:29:44;;;;;;;;;;;20.90;46.40;;;;;;5090922;28;19920;-60
2022/05/17 01:32:11;;;;;;;;;;;20.90;46.40;;;;;;5122796;27;19947;-59
2022/05/17 01:34:38;;;;;;;;;;;20.90;46.40;;;;;;5092023;27;19920;-56
2022/05/17 01:37:05;;;;;;;;;;;20.90;46.40;;;;;;5109078;27;19924;-59
2022/05/17 01:39:33;;;;;;;;;;;20.90;46.40;;;;;;5124964;27;19923;-58
2022/05/17 01:42:00;;;;;;;;;;;20.90;46.30;;;;;;5100725;28;19974;-58
2022/05/17 01:44:26;;;;;;;;;;;20.90;46.30;;;;;;5103034;28;19970;-58
2022/05/17 01:46:53;;;;;;;;;;;20.90;46.30;;;;;;5108214;27;20441;-58
2022/05/17 01:49:20;;;;;;;;;;;20.90;46.30;;;;;;5105656;27;19981;-58
2022/05/17 01:51:47;;;;;;;;;;;20.90;46.30;;;;;;5117748;27;19919;-59
2022/05/17 01:54:13;;;;;;;;;;;20.90;46.30;;;;;;5105586;27;19920;-58
2022/05/17 01:56:41;;;;;;;;;;;20.90;46.30;;;;;;5109679;28;20007;-58
2022/05/17 01:59:08;;;;;;;;;;;20.90;46.20;;;;;;5098890;27;19920;-59
2022/05/17 02:01:35;;;;;;;;;;;20.90;46.30;;;;;;5103885;28;19970;-59
2022/05/17 02:04:01;;;;;;;;;;;20.90;46.30;;;;;;5123959;27;20317;-58
2022/05/17 02:06:28;;;;;;;;;;;20.90;46.30;;;;;;5092870;28;19920;-56
2022/05/17 02:08:54;;;;;;;;;;;20.90;46.30;;;;;;5106961;27;20297;-59
2022/05/17 02:11:21;;;;;;;;;;;20.90;46.30;;;;;;5116342;27;20017;-60
2022/05/17 02:13:49;;;;;;;;;;;20.90;46.30;;;;;;5104474;27;20383;-58
2022/05/17 02:16:16;;;;;;;;;;;20.90;46.20;;;;;;5097599;28;20362;-58
2022/05/17 02:18:42;;;;;;;;;;;20.90;46.30;;;;;;5090385;28;19927;-59
2022/05/17 02:21:09;;;;;;;;;;;20.90;46.20;;;;;;5110693;27;19965;-57
2022/05/17 02:23:35;;;;;;;;;;;20.90;46.30;;;;;;5094156;28;19946;-59
2022/05/17 02:26:02;;;;;;;;;;;20.90;46.30;;;;;;5101013;28;20372;-58
2022/05/17 02:28:29;;;;;;;;;;;20.90;46.30;;;;;;5098112;28;19932;-58
2022/05/17 02:30:57;;;;;;;;;;;20.90;46.30;;;;;;5092209;28;20027;-57
2022/05/17 02:33:23;;;;;;;;;;;20.90;46.30;;;;;;5093200;28;20038;-59
2022/05/17 02:35:50;;;;;;;;;;;20.90;46.30;;;;;;5096141;28;19931;-57
2022/05/17 02:38:19;;;;;;;;;;;20.90;46.30;;;;;;5104525;28;20451;-59
2022/05/17 02:40:45;;;;;;;;;;;20.90;46.30;;;;;;5095339;28;19924;-59
2022/05/17 02:43:12;;;;;;;;;;;20.90;46.30;;;;;;5096525;28;19924;-58
2022/05/17 02:45:39;;;;;;;;;;;20.90;46.30;;;;;;5102988;28;19919;-58
2022/05/17 02:48:07;;;;;;;;;;;20.90;46.30;;;;;;5110048;28;20369;-59
2022/05/17 02:50:34;;;;;;;;;;;20.90;46.30;;;;;;5109192;28;19954;-59
2022/05/17 02:53:01;;;;;;;;;;;20.90;46.40;;;;;;5109466;28;19920;-60
2022/05/17 02:55:27;;;;;;;;;;;20.90;46.40;;;;;;5109985;28;19927;-58
2022/05/17 02:57:54;;;;;;;;;;;20.90;46.50;;;;;;5107021;28;20225;-60
2022/05/17 03:00:21;;;;;;;;;;;20.90;46.40;;;;;;5097901;28;20297;-60
2022/05/17 03:02:47;;;;;;;;;;;20.90;46.50;;;;;;5092910;28;19924;-60
2022/05/17 03:05:15;;;;;;;;;;;20.90;46.50;;;;;;5092216;28;19928;-58
2022/05/17 03:07:43;;;;;;;;;;;20.90;46.50;;;;;;5096271;28;19934;-60
2022/05/17 03:10:09;;;;;;;;;;;20.90;47.10;;;;;;5122870;27;19920;-59
2022/05/17 03:12:36;;;;;;;;;;;20.90;46.50;;;;;;5098726;28;19926;-59
2022/05/17 03:15:03;;;;;;;;;;;20.90;46.50;;;;;;5119881;28;20279;-58
2022/05/17 03:17:29;;;;;;;;;;;20.90;46.50;;;;;;5111525;28;19946;-59
2022/05/17 03:19:56;;;;;;;;;;;20.90;46.60;;;;;;5100116;27;20372;-59
2022/05/17 03:22:24;;;;;;;;;;;20.90;46.60;;;;;;5104448;27;19927;-59
2022/05/17 03:24:51;;;;;;;;;;;20.90;46.70;;;;;;5108180;27;19976;-57
2022/05/17 03:27:18;;;;;;;;;;;20.90;46.60;;;;;;5112489;27;20455;-59
2022/05/17 03:29:45;;;;;;;;;;;20.90;46.60;;;;;;5109511;27;19933;-59
2022/05/17 03:32:12;;;;;;;;;;;20.90;46.60;;;;;;5108773;27;19919;-59
2022/05/17 03:34:38;;;;;;;;;;;20.90;46.60;;;;;;5109385;27;20423;-57
2022/05/17 03:37:05;;;;;;;;;;;20.90;46.60;;;;;;5127323;27;19930;-58
2022/05/17 03:39:33;;;;;;;;;;;20.90;46.60;;;;;;5126103;27;19924;-58
2022/05/17 03:42:00;;;;;;;;;;;20.90;46.60;;;;;;5111946;27;20369;-59
2022/05/17 03:44:27;;;;;;;;;;;20.90;46.60;;;;;;5104864;28;19930;-58
2022/05/17 03:46:53;;;;;;;;;;;20.90;47.20;;;;;;5103944;28;19928;-58
2022/05/17 03:49:20;;;;;;;;;;;20.90;46.50;;;;;;5112931;27;19923;-59
2022/05/17 03:51:47;;;;;;;;;;;20.90;46.60;;;;;;5104292;28;19928;-58
2022/05/17 03:54:18;;;;;;;;;;;20.90;46.60;;;;;;5095560;28;19931;-58
2022/05/17 03:56:47;;;;;;;;;;;20.90;46.60;;;;;;5111359;28;20015;-58
2022/05/17 03:59:13;;;;;;;;;;;20.90;46.60;;;;;;5098900;27;19931;-59
2022/05/17 04:01:40;;;;;;;;;;;20.90;46.60;;;;;;5097447;27;19920;-60
2022/05/17 04:04:07;;;;;;;;;;;20.90;46.60;;;;;;5123910;27;19926;-59
2022/05/17 04:06:34;;;;;;;;;;;20.90;46.60;;;;;;5102294;27;19988;-58
2022/05/17 04:09:00;;;;;;;;;;;20.90;46.70;;;;;;5099493;27;20376;-56
2022/05/17 04:11:27;;;;;;;;;;;20.90;46.70;;;;;;5097171;28;19919;-59
2022/05/17 04:13:55;;;;;;;;;;;20.90;46.70;;;;;;5107508;28;19984;-56
2022/05/17 04:16:22;;;;;;;;;;;20.90;46.70;;;;;;5109397;28;19928;-59
2022/05/17 04:18:48;;;;;;;;;;;20.90;46.70;;;;;;5101168;27;20014;-58
2022/05/17 04:21:15;;;;;;;;;;;20.90;46.70;;;;;;5139067;27;20342;-59
2022/05/17 04:23:42;;;;;;;;;;;20.90;46.70;;;;;;5110722;27;20465;-56
2022/05/17 04:26:09;;;;;;;;;;;20.90;46.70;;;;;;5110293;28;19926;-59
2022/05/17 04:28:35;;;;;;;;;;;20.90;46.70;;;;;;5090996;28;19931;-57
2022/05/17 04:31:05;;;;;;;;;;;20.90;46.70;;;;;;5098747;28;20395;-58
2022/05/17 04:33:31;;;;;;;;;;;20.90;46.70;;;;;;5108029;28;20429;-58
2022/05/17 04:35:58;;;;;;;;;;;20.90;46.70;;;;;;5097414;28;19949;-57
2022/05/17 04:38:25;;;;;;;;;;;20.90;46.70;;;;;;5113210;27;19969;-58
2022/05/17 04:40:51;;;;;;;;;;;20.90;46.70;;;;;;5113195;27;20384;-57
2022/05/17 04:43:18;;;;;;;;;;;20.90;46.70;;;;;;5110299;28;19959;-60
2022/05/17 04:45:45;;;;;;;;;;;20.90;46.70;;;;;;5127038;27;20304;-59
2022/05/17 04:48:13;;;;;;;;;;;20.90;46.70;;;;;;5102480;27;19966;-57
2022/05/17 04:50:40;;;;;;;;;;;20.90;46.70;;;;;;5102118;27;19920;-56
2022/05/17 04:53:07;;;;;;;;;;;20.90;46.80;;;;;;5103634;27;19932;-57
2022/05/17 04:55:34;;;;;;;;;;;20.90;46.80;;;;;;5111238;28;20373;-57
2022/05/17 04:58:01;;;;;;;;;;;20.90;46.80;;;;;;5101721;27;19920;-58
2022/05/17 05:00:27;;;;;;;;;;;20.90;46.80;;;;;;5092533;27;19942;-53
2022/05/17 05:02:54;;;;;;;;;;;20.90;46.90;;;;;;5116691;27;20103;-56
2022/05/17 05:05:22;;;;;;;;;;;20.90;46.80;;;;;;5096133;27;19920;-57
2022/05/17 05:07:49;;;;;;;;;;;20.90;46.80;;;;;;5104143;27;20018;-56
2022/05/17 05:10:16;;;;;;;;;;;20.90;46.80;;;;;;5113515;27;20010;-58
2022/05/17 05:12:42;;;;;;;;;;;20.90;46.90;;;;;;5106659;27;20044;-57
2022/05/17 05:15:10;;;;;;;;;;;20.90;46.80;;;;;;5114173;27;19970;-57
2022/05/17 05:17:37;;;;;;;;;;;20.90;46.90;;;;;;5100733;27;19926;-57
2022/05/17 05:20:04;;;;;;;;;;;20.90;46.90;;;;;;5123774;27;19920;-57
2022/05/17 05:22:32;;;;;;;;;;;20.90;46.90;;;;;;5102556;28;20322;-57
2022/05/17 05:24:59;;;;;;;;;;;20.90;46.90;;;;;;5109276;28;19924;-58
2022/05/17 05:27:26;;;;;;;;;;;20.90;46.90;;;;;;5134361;27;19934;-59
2022/05/17 05:29:52;;;;;;;;;;;20.90;47.00;;;;;;5107606;27;20266;-56
2022/05/17 05:32:19;;;;;;;;;;;20.90;47.00;;;;;;5105847;27;19924;-57
2022/05/17 05:34:46;;;;;;;;;;;20.90;46.90;;;;;;5108038;27;19924;-57
2022/05/17 05:37:13;;;;;;;;;;;20.90;47.00;;;;;;5105933;27;19951;-58
2022/05/17 05:39:41;;;;;;;;;;;20.90;47.10;;;;;;5104204;27;19924;-59
2022/05/17 05:42:08;;;;;;;;;;;20.90;47.10;;;;;;5124202;27;20012;-56
2022/05/17 05:44:35;;;;;;;;;;;20.90;47.10;;;;;;5108114;27;19924;-57
2022/05/17 05:47:01;;;;;;;;;;;20.90;47.10;;;;;;5135752;27;20018;-57
2022/05/17 05:49:28;;;;;;;;;;;20.90;47.10;;;;;;5104266;28;19920;-55
2022/05/17 05:51:55;;;;;;;;;;;20.90;47.10;;;;;;5109717;28;20277;-57
2022/05/17 05:54:21;;;;;;;;;;;20.90;47.20;;;;;;5105797;27;19926;-56
2022/05/17 05:56:49;;;;;;;;;;;20.90;47.20;;;;;;5109548;27;19931;-55
2022/05/17 05:59:16;;;;;;;;;;;20.90;47.20;;;;;;5104538;27;19931;-54
2022/05/17 06:01:44;;;;;;;;;;;20.90;47.20;;;;;;5105905;28;19927;-58
2022/05/17 06:04:11;;;;;;;;;;;21.00;47.30;;;;;;5100871;28;19920;-57
2022/05/17 06:06:40;;;;;;;;;;;20.90;47.30;;;;;;5102458;27;19993;-57
2022/05/17 06:09:06;;;;;;;;;;;20.90;47.30;;;;;;5101063;28;19924;-58
2022/05/17 06:11:33;;;;;;;;;;;21.00;47.40;;;;;;5108140;28;20309;-59
2022/05/17 06:14:01;;;;;;;;;;;21.00;47.40;;;;;;5108722;28;20288;-59
2022/05/17 06:16:28;;;;;;;;;;;21.00;47.40;;;;;;5118599;27;20036;-60
2022/05/17 06:18:55;;;;;;;;;;;21.00;47.40;;;;;;5106090;27;19981;-58
2022/05/17 06:21:21;;;;;;;;;;;20.90;47.40;;;;;;5104755;27;20442;-59
2022/05/17 06:23:48;;;;;;;;;;;21.00;47.40;;;;;;5111250;28;20014;-58
2022/05/17 06:26:15;;;;;;;;;;;21.00;47.40;;;;;;5106419;28;19924;-58
2022/05/17 06:28:41;;;;;;;;;;;21.00;47.50;;;;;;5109589;28;19920;-59
2022/05/17 06:31:09;;;;;;;;;;;21.00;47.50;;;;;;5105776;28;19928;-58
2022/05/17 06:33:39;;;;;;;;;;;21.00;47.50;;;;;;5123536;27;19931;-59
2022/05/17 06:36:06;;;;;;;;;;;21.00;47.50;;;;;;5103117;28;19938;-55
2022/05/17 06:38:32;;;;;;;;;;;21.00;47.50;;;;;;5095825;27;19980;-56
2022/05/17 06:40:59;;;;;;;;;;;20.90;47.50;;;;;;5098565;28;19963;-57
2022/05/17 06:43:27;;;;;;;;;;;20.90;47.50;;;;;;5099977;28;20318;-58
2022/05/17 06:45:54;;;;;;;;;;;20.90;47.50;;;;;;5106829;28;19992;-59
2022/05/17 06:48:22;;;;;;;;;;;21.00;47.60;;;;;;5101641;28;20377;-60
2022/05/17 06:50:49;;;;;;;;;;;21.00;47.60;;;;;;5094242;28;20403;-56
2022/05/17 06:53:16;;;;;;;;;;;21.00;47.80;;;;;;5096273;28;19923;-57
2022/05/17 06:55:42;;;;;;;;;;;21.00;47.80;;;;;;5105920;27;19959;-58
2022/05/17 06:58:09;;;;;;;;;;;21.00;47.70;;;;;;5129554;27;19955;-57
2022/05/17 07:00:36;;;;;;;;;;;21.00;47.80;;;;;;5122027;27;20335;-59
2022/05/17 07:03:02;;;;;;;;;;;20.90;47.80;;;;;;5087950;28;19927;-59
2022/05/17 07:05:30;;;;;;;;;;;21.00;47.90;;;;;;5096064;28;19984;-59
2022/05/17 07:08:00;;;;;;;;;;;20.90;47.90;;;;;;5090815;28;20497;-59
2022/05/17 07:13:13;;;;;;;;;;;21.00;47.90;;;;;;5095196;28;19919;-57
2022/05/17 07:15:41;;;;;;;;;;;21.00;48.00;;;;;;5098917;28;19919;-59
2022/05/17 07:18:08;;;;;;;;;;;21.00;48.00;;;;;;5104669;28;20375;-59
2022/05/17 07:20:36;;;;;;;;;;;21.00;48.00;;;;;;5096635;28;19928;-59
2022/05/17 07:23:03;;;;;;;;;;;21.00;48.00;;;;;;5107918;28;19932;-57
2022/05/17 07:25:30;;;;;;;;;;;21.00;48.00;;;;;;5107069;28;19975;-59
2022/05/17 07:27:57;;;;;;;;;;;21.00;48.00;;;;;;5106930;28;19920;-58
2022/05/17 07:30:24;;;;;;;;;;;21.00;48.00;;;;;;5105842;28;19973;-59
2022/05/17 07:32:50;;;;;;;;;;;21.00;48.00;;;;;;5103533;28;19927;-58
2022/05/17 07:35:17;;;;;;;;;;;21.00;48.00;;;;;;5105091;28;20202;-55
2022/05/17 07:37:45;;;;;;;;;;;21.00;48.00;;;;;;5109027;28;19970;-59
2022/05/17 07:40:13;;;;;;;;;;;21.00;48.00;;;;;;5111905;28;19999;-60
2022/05/17 07:42:40;;;;;;;;;;;21.00;48.00;;;;;;5095804;28;19951;-58
2022/05/17 07:45:07;;;;;;;;;;;21.00;48.00;;;;;;5100735;28;20453;-58
2022/05/17 07:47:34;;;;;;;;;;;21.00;48.00;;;;;;5105315;28;20369;-58
2022/05/17 07:50:00;;;;;;;;;;;21.00;48.00;;;;;;5103942;28;20332;-58
2022/05/17 07:52:27;;;;;;;;;;;21.00;48.10;;;;;;5101284;28;19924;-58
2022/05/17 07:54:55;;;;;;;;;;;21.00;48.10;;;;;;5101899;28;19989;-60
2022/05/17 07:57:23;;;;;;;;;;;21.00;48.70;;;;;;5092649;28;20374;-59
2022/05/17 07:59:49;;;;;;;;;;;21.00;48.20;;;;;;5113665;27;19969;-57
2022/05/17 08:02:16;;;;;;;;;;;21.00;48.20;;;;;;5107312;28;19923;-60
2022/05/17 08:04:43;;;;;;;;;;;21.00;48.30;;;;;;5112134;27;20359;-57
2022/05/17 08:07:09;;;;;;;;;;;21.00;48.20;;;;;;5111076;27;19926;-57
2022/05/17 08:09:37;;;;;;;;;;;21.00;48.30;;;;;;5131588;27;20361;-59
2022/05/17 08:12:07;;;;;;;;;;;21.00;48.30;;;;;;5100608;27;19924;-57
2022/05/17 08:14:34;;;;;;;;;;;21.00;48.40;;;;;;5099300;28;19920;-58
2022/05/17 08:17:01;;;;;;;;;;;21.00;48.40;;;;;;5099432;28;19930;-58
2022/05/17 08:19:28;;;;;;;;;;;21.00;48.40;;;;;;5094370;27;19924;-59
2022/05/17 08:21:55;;;;;;;;;;;21.10;48.40;;;;;;5131056;27;19927;-58
2022/05/17 08:24:22;;;;;;;;;;;21.00;48.50;;;;;;5097614;27;19927;-59
2022/05/17 08:29:34;;;;;;;;;;;21.10;48.60;;;;;;5111405;27;20007;-58
2022/05/17 08:34:45;;;;;;;;;;;21.10;48.60;;;;;;5106752;28;19927;-56
2022/05/17 08:37:12;;;;;;;;;;;21.00;48.70;;;;;;5109237;28;20437;-58
2022/05/17 08:39:38;;;;;;;;;;;21.10;48.70;;;;;;5104879;27;20229;-56
2022/05/17 08:42:08;;;;;;;;;;;21.10;48.70;;;;;;5108656;27;20031;-58
2022/05/17 08:44:41;;;;;;;;;;;21.00;48.70;;;;;;5107133;27;19919;-57
2022/05/17 08:47:09;;;;;;;;;;;21.00;48.70;;;;;;5096085;27;20381;-59
2022/05/17 08:49:37;;;;;;;;;;;21.00;48.70;;;;;;5104581;28;19956;-59
2022/05/17 08:52:05;;;;;;;;;;;21.10;48.90;;;;;;5106869;28;19930;-59
2022/05/17 08:54:34;;;;;;;;;;;21.10;48.90;;;;;;5107632;27;19958;-59
2022/05/17 08:57:03;;;;;;;;;;;21.10;48.90;;;;;;5091731;27;20292;-58
2022/05/17 08:59:29;;;;;;;;;;;21.10;49.00;;;;;;5129946;27;20388;-58
2022/05/17 09:02:00;;;;;;;;;;;21.10;49.00;;;;;;5095871;28;19956;-58
2022/05/17 09:04:45;;;;;;;;;;;21.10;49.00;;;;;;5094143;28;19959;-59
2022/05/17 09:07:14;;;;;;;;;;;21.10;49.00;;;;;;5107273;27;20022;-58
2022/05/17 09:09:44;;;;;;;;;;;21.10;49.00;;;;;;5098232;27;19931;-60
2022/05/17 09:12:14;;;;;;;;;;;21.10;49.10;;;;;;5092903;27;19932;-60
2022/05/17 09:14:41;;;;;;;;;;;21.10;49.20;;;;;;5090553;27;19981;-59
2022/05/17 09:17:11;;;;;;;;;;;21.10;49.30;;;;;;5100359;27;19924;-59
2022/05/17 09:19:38;;;;;;;;;;;21.10;49.50;;;;;;5135984;27;19931;-60
2022/05/17 09:22:06;;;;;;;;;;;21.10;49.90;;;;;;5103644;27;19984;-58
2022/05/17 09:24:35;;;;;;;;;;;21.10;49.90;;;;;;5108857;28;19920;-58
2022/05/17 09:27:02;;;;;;;;;;;21.10;49.70;;;;;;5103635;27;20384;-58
2022/05/17 09:29:31;;;;;;;;;;;21.10;49.70;;;;;;5099186;27;19931;-59
2022/05/17 09:32:00;;;;;;;;;;;21.10;49.60;;;;;;5101392;27;19973;-58
2022/05/17 09:34:33;;;;;;;;;;;21.10;49.60;;;;;;5094420;28;19927;-59
2022/05/17 09:37:03;;;;;;;;;;;21.10;49.60;;;;;;5097746;27;19920;-60
2022/05/17 09:39:30;;;;;;;;;;;21.10;49.60;;;;;;5100070;27;19919;-59
2022/05/17 09:41:58;;;;;;;;;;;21.10;49.60;;;;;;5101067;27;19931;-59
2022/05/17 09:44:25;;;;;;;;;;;21.10;49.60;;;;;;5137091;27;19932;-58
2022/05/17 09:46:52;;;;;;;;;;;21.10;49.60;;;;;;5103750;27;19924;-58
2022/05/17 09:54:53;;;;;;;;;;;21.10;49.60;;;;;;5105525;27;19931;-58
2022/05/17 09:57:21;;;;;;;;;;;21.20;49.60;;;;;;5104111;27;19919;-60
2022/05/17 09:59:48;;;;;;;;;;;21.20;49.60;;;;;;5129214;27;19931;-58
2022/05/17 10:02:33;;;;;;;;;;;21.10;49.80;;;;;;5112340;27;19947;-61
2022/05/17 10:05:00;;;;;;;;;;;21.20;49.70;;;;;;5096843;27;20356;-59
2022/05/17 10:07:28;;;;;;;;;;;21.10;49.60;;;;;;5101174;27;20352;-58
2022/05/17 10:09:55;;;;;;;;;;;21.20;49.70;;;;;;5099529;28;20068;-58
2022/05/17 10:12:23;;;;;;;;;;;21.20;49.70;;;;;;5097086;27;20371;-61
2022/05/17 10:14:50;;;;;;;;;;;21.20;49.70;;;;;;5092944;27;19927;-59
2022/05/17 10:17:20;;;;;;;;;;;21.10;49.70;;;;;;5098968;28;19924;-60
2022/05/17 10:19:47;;;;;;;;;;;21.20;49.70;;;;;;5094771;27;19970;-60
2022/05/17 10:22:18;;;;;;;;;;;21.20;49.80;;;;;;5101420;28;19920;-61
2022/05/17 10:24:46;;;;;;;;;;;21.20;49.80;;;;;;5124116;27;19971;-60
2022/05/17 10:27:14;;;;;;;;;;;21.10;49.70;;;;;;5098938;28;19924;-60
2022/05/17 10:29:44;;;;;;;;;;;21.20;49.80;;;;;;5101254;27;20451;-59
2022/05/17 10:32:12;;;;;;;;;;;21.10;49.70;;;;;;5128181;27;19923;-59
2022/05/17 10:34:41;;;;;;;;;;;21.10;49.70;;;;;;5100627;28;19932;-60
2022/05/17 10:37:09;;;;;;;;;;;21.20;49.80;;;;;;5088726;27;19928;-59
2022/05/17 10:39:37;;;;;;;;;;;21.20;49.80;;;;;;5101095;28;19972;-59
2022/05/17 10:42:06;;;;;;;;;;;21.20;49.80;;;;;;5098163;28;20042;-60
2022/05/17 10:44:39;;;;;;;;;;;21.20;49.80;;;;;;5089211;28;19947;-60
2022/05/17 10:47:08;;;;;;;;;;;21.20;49.90;;;;;;5095832;28;19928;-58
2022/05/17 10:49:37;;;;;;;;;;;21.20;49.90;;;;;;5100080;28;19926;-60
2022/05/17 10:52:05;;;;;;;;;;;21.20;49.90;;;;;;5094201;28;19990;-58
2022/05/17 10:54:35;;;;;;;;;;;21.20;49.90;;;;;;5108875;27;20085;-58
2022/05/17 10:57:04;;;;;;;;;;;21.20;50.00;;;;;;5103518;28;19920;-59
2022/05/17 10:59:33;;;;;;;;;;;21.20;50.40;;;;;;5104159;27;19926;-59
2022/05/17 11:02:02;;;;;;;;;;;21.20;50.60;;;;;;5117055;27;19927;-60
2022/05/17 11:04:58;;;;;;;;;;;21.20;50.70;;;;;;5084954;28;20317;-60
2022/05/17 11:07:27;;;;;;;;;;;21.20;50.80;;;;;;5118689;27;19947;-56
2022/05/17 11:09:56;;;;;;;;;;;21.20;50.80;;;;;;5097301;28;20227;-61
2022/05/17 11:12:23;;;;;;;;;;;21.20;50.80;;;;;;5086764;28;19924;-60
2022/05/17 11:14:52;;;;;;;;;;;21.20;50.70;;;;;;5121551;27;19938;-58
2022/05/17 11:17:27;;;;;;;;;;;21.20;50.70;;;;;;5091205;28;19924;-58
2022/05/17 11:19:54;;;;;;;;;;;21.20;50.60;;;;;;5082743;28;20365;-58
2022/05/17 11:22:22;;;;;;;;;;;21.20;50.60;;;;;;5089711;28;19934;-58
2022/05/17 11:24:59;;;;;;;;;;;21.20;50.80;;;;;;5094043;28;20014;-58
2022/05/17 11:27:31;;;;;;;;;;;21.20;50.90;;;;;;5091571;28;20304;-59
2022/05/17 11:30:05;;;;;;;;;;;21.20;50.70;;;;;;5092046;28;19999;-59
2022/05/17 11:32:32;;;;;;;;;;;21.20;50.80;;;;;;5082658;28;20423;-61
2022/05/17 11:34:59;;;;;;;;;;;21.20;50.80;;;;;;5088564;28;20337;-58
2022/05/17 11:37:47;;;;;;;;;;;21.20;50.90;;;;;;5097130;28;19926;-60
2022/05/17 11:40:18;;;;;;;;;;;21.30;51.30;;;;;;5084684;28;19920;-58
2022/05/17 11:45:50;;;;;;;;;;;21.30;51.80;;;;;;5097180;27;19920;-59
2022/05/17 11:48:17;;;;;;;;;;;21.30;51.70;;;;;;5098507;27;19946;-59
2022/05/17 11:50:45;;;;;;;;;;;21.30;52.00;;;;;;5098672;27;20317;-59
2022/05/17 11:53:32;;;;;;;;;;;21.30;51.50;;;;;;5107033;27;20349;-61
2022/05/17 11:56:12;;;;;;;;;;;21.30;51.60;;;;;;5096860;27;20106;-59
2022/05/17 11:58:39;;;;;;;;;;;21.30;51.50;;;;;;5104027;27;19939;-59
2022/05/17 12:01:09;;;;;;;;;;;21.30;51.30;;;;;;5105150;27;19920;-60
2022/05/17 12:03:46;;;;;;;;;;;21.30;51.30;;;;;;5105939;27;20146;-60
2022/05/17 12:06:33;;;;;;;;;;;21.30;51.40;;;;;;5100811;27;19928;-59
2022/05/17 12:09:00;;;;;;;;;;;21.30;51.30;;;;;;5107503;27;20340;-59
2022/05/17 12:11:30;;;;;;;;;;;21.30;51.20;;;;;;5109623;27;19963;-60
2022/05/17 12:14:08;;;;;;;;;;;21.30;51.20;;;;;;5087113;27;20369;-61
2022/05/17 12:16:37;;;;;;;;;;;21.30;51.20;;;;;;5102844;27;20022;-60
2022/05/17 12:19:05;;;;;;;;;;;21.30;51.20;;;;;;5094602;27;20041;-59
2022/05/17 12:21:35;;;;;;;;;;;21.30;51.20;;;;;;5125027;27;19977;-60
2022/05/17 12:24:06;;;;;;;;;;;21.30;51.20;;;;;;5088022;27;20532;-59
2022/05/17 12:26:36;;;;;;;;;;;21.30;51.20;;;;;;5095974;28;19931;-60
2022/05/17 12:30:53;;;;;;;;;;;21.30;51.30;;;;;;5092917;28;19932;-58
2022/05/17 12:31:50;;;;;;;;;;;21.30;51.20;;;;;;5095242;27;19924;-59
2022/05/17 12:34:17;;;;;;;;;;;21.30;51.20;;;;;;5097378;28;19920;-59
2022/05/17 12:36:43;;;;;;;;;;;21.30;51.20;;;;;;5094784;28;20012;-59
2022/05/17 12:44:41;;;;;;;;;;;21.30;51.50;;;;;;5093595;27;19974;-60
2022/05/17 12:47:10;;;;;;;;;;;21.30;51.40;;;;;;5102131;27;19928;-58
2022/05/17 12:49:38;;;;;;;;;;;21.30;51.40;;;;;;5099231;27;20018;-60
2022/05/17 12:52:10;;;;;;;;;;;21.30;51.40;;;;;;5093608;28;19924;-59
2022/05/17 12:54:37;;;;;;;;;;;21.30;51.50;;;;;;5123369;27;19973;-60
2022/05/17 12:57:15;;;;;;;;;;;21.30;51.40;;;;;;5129594;27;19963;-59
2022/05/17 12:59:42;;;;;;;;;;;21.30;51.30;;;;;;5132501;27;20526;-58
2022/05/17 13:02:10;;;;;;;;;;;21.30;51.40;;;;;;5095778;27;20030;-59
2022/05/17 13:04:38;;;;;;;;;;;21.30;51.30;;;;;;5126904;27;19931;-57
2022/05/17 13:07:11;;;;;;;;;;;21.30;51.30;;;;;;5099508;27;19977;-57
2022/05/17 13:09:38;;;;;;;;;;;21.30;51.30;;;;;;5133087;27;19927;-58
2022/05/17 13:12:13;;;;;;;;;;;21.30;51.70;;;;;;5100274;27;20007;-59
2022/05/17 13:14:39;;;;;;;;;;;21.30;51.90;;;;;;5125262;27;19934;-58
2022/05/17 13:17:07;;;;;;;;;;;21.30;51.90;;;;;;5103973;27;19930;-60
2022/05/17 13:19:35;;;;;;;;;;;21.30;51.90;;;;;;5089152;27;20306;-58
2022/05/17 13:22:01;;;;;;;;;;;21.30;51.90;;;;;;5095629;27;19920;-60
2022/05/17 13:24:28;;;;;;;;;;;21.30;51.90;;;;;;5095691;28;19924;-60
2022/05/17 13:26:57;;;;;;;;;;;21.30;51.80;;;;;;5121538;27;19931;-59
2022/05/17 13:29:27;;;;;;;;;;;21.30;51.90;;;;;;5102681;28;20419;-59
2022/05/17 13:31:55;;;;;;;;;;;21.20;52.00;;;;;;5093195;27;20376;-58
2022/05/17 13:34:26;;;;;;;;;;;21.20;52.00;;;;;;5093986;27;19958;-59
2022/05/17 13:37:02;;;;;;;;;;;21.20;52.00;;;;;;5097605;27;19924;-58
2022/05/17 13:39:29;;;;;;;;;;;21.30;52.00;;;;;;5135128;27;19924;-61
2022/05/17 13:41:57;;;;;;;;;;;21.30;52.10;;;;;;5124206;27;20476;-60
2022/05/17 13:44:27;;;;;;;;;;;21.20;52.00;;;;;;5097466;28;19931;-59
2022/05/17 13:46:54;;;;;;;;;;;21.20;51.90;;;;;;5120066;27;19928;-59
2022/05/17 13:49:21;;;;;;;;;;;21.20;52.00;;;;;;5093778;27;19984;-59
2022/05/17 13:51:53;;;;;;;;;;;21.20;52.00;;;;;;5100112;27;19963;-60
2022/05/17 13:54:25;;;;;;;;;;;21.20;52.00;;;;;;5106119;27;19977;-60
2022/05/17 13:56:53;;;;;;;;;;;21.20;52.60;;;;;;5091768;28;19951;-59
2022/05/17 13:59:20;;;;;;;;;;;21.20;52.00;;;;;;5086933;28;20373;-58
2022/05/17 14:01:54;;;;;;;;;;;21.20;51.90;;;;;;5092342;28;19942;-58
2022/05/17 14:04:26;;;;;;;;;;;21.20;52.00;;;;;;5097647;28;19931;-58
2022/05/17 14:06:54;;;;;;;;;;;21.20;51.90;;;;;;5108234;27;20043;-60
2022/05/17 14:12:11;;;;;;;;;;;21.20;51.80;;;;;;5093192;28;20450;-58
2022/05/17 14:14:37;;;;;;;;;;;21.20;51.70;;;;;;5120196;27;19955;-57
2022/05/17 14:17:04;;;;;;;;;;;21.20;51.90;;;;;;5095753;28;20143;-58
2022/05/17 14:19:31;;;;;;;;;;;21.20;51.90;;;;;;5087428;27;20000;-60
2022/05/17 14:21:59;;;;;;;;;;;21.20;51.90;;;;;;5091118;28;19928;-58
2022/05/17 14:24:28;;;;;;;;;;;21.20;51.90;;;;;;5097884;28;20039;-56
2022/05/17 14:26:55;;;;;;;;;;;21.20;51.90;;;;;;5094034;28;19927;-59
2022/05/17 14:29:24;;;;;;;;;;;21.20;51.80;;;;;;5098882;28;19930;-58
2022/05/17 14:31:51;;;;;;;;;;;21.20;51.80;;;;;;5097470;28;19924;-59
2022/05/17 14:34:19;;;;;;;;;;;21.20;51.90;;;;;;5104274;28;19973;-57
2022/05/17 14:36:45;;;;;;;;;;;21.20;51.90;;;;;;5098249;28;19920;-58
2022/05/17 14:39:13;;;;;;;;;;;21.20;52.00;;;;;;5091277;28;19924;-61
2022/05/17 14:41:42;;;;;;;;;;;21.20;52.00;;;;;;5130326;27;19930;-56
2022/05/17 14:44:10;;;;;;;;;;;21.20;52.10;;;;;;5118863;27;19920;-58
2022/05/17 14:46:36;;;;;;;;;;;21.20;52.10;;;;;;5090631;27;20421;-58